sensor_id;sensor_type;location;lat;lon;timestamp;P1;durP1;ratioP1;P2;durP2;ratioP2
15936;SDS011;9163;48.818;8.976;2023-11-18T00:00:57;5.33;;;4.67;;
15936;SDS011;9163;48.818;8.976;2023-11-18T00:03:25;4.73;;;3.83;;
15936;SDS011;9163;48.818;8.976;2023-11-18T00:05:52;4.57;;;4.03;;
15936;SDS011;9163;48.818;8.976;2023-11-18T00:08:19;9.23;;;6.37;;
15936;SDS011;9163;48.818;8.976;2023-11-18T00:10:46;8.77;;;6.73;;
15936;SDS011;9163;48.818;8.976;2023-11-18T00:13:14;8.90;;;7.10;;
15936;SDS011;9163;48.818;8.976;2023-11-18T00:15:42;9.37;;;6.70;;
15936;SDS011;9163;48.818;8.976;2023-11-18T00:18:11;8.27;;;6.90;;
15936;SDS011;9163;48.818;8.976;2023-11-18T00:20:38;9.23;;;7.10;;
15936;SDS011;9163;48.818;8.976;2023-11-18T00:23:06;8.37;;;7.10;;
15936;SDS011;9163;48.818;8.976;2023-11-18T00:25:33;9.00;;;7.50;;
15936;SDS011;9163;48.818;8.976;2023-11-18T00:28:01;9.37;;;7.67;;
15936;SDS011;9163;48.818;8.976;2023-11-18T00:30:29;9.73;;;7.87;;
15936;SDS011;9163;48.818;8.976;2023-11-18T00:32:58;8.87;;;7.57;;
15936;SDS011;9163;48.818;8.976;2023-11-18T00:35:25;10.67;;;7.87;;
15936;SDS011;9163;48.818;8.976;2023-11-18T00:37:52;10.33;;;8.33;;
15936;SDS011;9163;48.818;8.976;2023-11-18T00:40:19;9.17;;;8.17;;
15936;SDS011;9163;48.818;8.976;2023-11-18T00:42:46;10.77;;;8.37;;
15936;SDS011;9163;48.818;8.976;2023-11-18T00:45:14;10.77;;;8.37;;
15936;SDS011;9163;48.818;8.976;2023-11-18T00:47:41;10.20;;;7.83;;
15936;SDS011;9163;48.818;8.976;2023-11-18T00:50:09;12.00;;;8.30;;
15936;SDS011;9163;48.818;8.976;2023-11-18T00:52:37;9.53;;;8.50;;
15936;SDS011;9163;48.818;8.976;2023-11-18T00:55:07;9.67;;;7.87;;
15936;SDS011;9163;48.818;8.976;2023-11-18T00:57:36;10.53;;;8.57;;
15936;SDS011;9163;48.818;8.976;2023-11-18T01:00:06;9.93;;;8.60;;
15936;SDS011;9163;48.818;8.976;2023-11-18T01:02:39;11.37;;;8.03;;
15936;SDS011;9163;48.818;8.976;2023-11-18T01:05:06;10.97;;;8.60;;
15936;SDS011;9163;48.818;8.976;2023-11-18T01:07:38;10.83;;;8.63;;
15936;SDS011;9163;48.818;8.976;2023-11-18T01:10:06;10.10;;;8.20;;
15936;SDS011;9163;48.818;8.976;2023-11-18T01:12:35;10.80;;;8.40;;
15936;SDS011;9163;48.818;8.976;2023-11-18T01:15:03;11.27;;;8.50;;
15936;SDS011;9163;48.818;8.976;2023-11-18T01:17:31;10.57;;;8.20;;
15936;SDS011;9163;48.818;8.976;2023-11-18T01:19:58;10.20;;;8.10;;
15936;SDS011;9163;48.818;8.976;2023-11-18T01:22:26;9.67;;;7.87;;
15936;SDS011;9163;48.818;8.976;2023-11-18T01:24:56;11.13;;;7.73;;
15936;SDS011;9163;48.818;8.976;2023-11-18T01:27:23;11.43;;;8.27;;
15936;SDS011;9163;48.818;8.976;2023-11-18T01:29:51;10.70;;;8.20;;
15936;SDS011;9163;48.818;8.976;2023-11-18T01:32:18;10.50;;;7.90;;
15936;SDS011;9163;48.818;8.976;2023-11-18T01:34:45;9.23;;;8.17;;
15936;SDS011;9163;48.818;8.976;2023-11-18T01:37:15;9.67;;;8.30;;
15936;SDS011;9163;48.818;8.976;2023-11-18T01:39:43;11.00;;;8.50;;
15936;SDS011;9163;48.818;8.976;2023-11-18T01:42:11;10.50;;;8.80;;
15936;SDS011;9163;48.818;8.976;2023-11-18T01:44:39;11.10;;;8.73;;
15936;SDS011;9163;48.818;8.976;2023-11-18T01:47:06;9.33;;;7.70;;
15936;SDS011;9163;48.818;8.976;2023-11-18T01:49:36;10.47;;;7.90;;
15936;SDS011;9163;48.818;8.976;2023-11-18T01:52:05;8.47;;;7.57;;
15936;SDS011;9163;48.818;8.976;2023-11-18T01:54:34;10.80;;;8.00;;
15936;SDS011;9163;48.818;8.976;2023-11-18T01:57:03;8.33;;;7.43;;
15936;SDS011;9163;48.818;8.976;2023-11-18T01:59:32;9.40;;;7.03;;
15936;SDS011;9163;48.818;8.976;2023-11-18T02:02:00;8.60;;;7.33;;
15936;SDS011;9163;48.818;8.976;2023-11-18T02:04:28;8.53;;;7.47;;
15936;SDS011;9163;48.818;8.976;2023-11-18T02:06:56;9.67;;;7.07;;
15936;SDS011;9163;48.818;8.976;2023-11-18T02:09:24;9.73;;;6.97;;
15936;SDS011;9163;48.818;8.976;2023-11-18T02:11:55;10.33;;;7.13;;
15936;SDS011;9163;48.818;8.976;2023-11-18T02:14:26;9.73;;;7.30;;
15936;SDS011;9163;48.818;8.976;2023-11-18T02:16:59;9.40;;;6.93;;
15936;SDS011;9163;48.818;8.976;2023-11-18T02:19:30;8.80;;;6.63;;
15936;SDS011;9163;48.818;8.976;2023-11-18T02:21:57;9.97;;;6.77;;
15936;SDS011;9163;48.818;8.976;2023-11-18T02:24:27;7.37;;;6.00;;
15936;SDS011;9163;48.818;8.976;2023-11-18T02:26:57;7.87;;;6.37;;
15936;SDS011;9163;48.818;8.976;2023-11-18T02:29:26;8.80;;;6.40;;
15936;SDS011;9163;48.818;8.976;2023-11-18T02:31:57;6.90;;;5.83;;
15936;SDS011;9163;48.818;8.976;2023-11-18T02:34:30;8.03;;;6.23;;
15936;SDS011;9163;48.818;8.976;2023-11-18T02:37:00;7.00;;;6.10;;
15936;SDS011;9163;48.818;8.976;2023-11-18T02:39:32;8.07;;;6.03;;
15936;SDS011;9163;48.818;8.976;2023-11-18T02:42:07;6.77;;;5.70;;
15936;SDS011;9163;48.818;8.976;2023-11-18T02:44:36;7.17;;;5.70;;
15936;SDS011;9163;48.818;8.976;2023-11-18T02:47:04;7.63;;;5.80;;
15936;SDS011;9163;48.818;8.976;2023-11-18T02:49:32;8.17;;;6.10;;
15936;SDS011;9163;48.818;8.976;2023-11-18T02:52:01;8.23;;;5.83;;
15936;SDS011;9163;48.818;8.976;2023-11-18T02:54:29;6.87;;;5.73;;
15936;SDS011;9163;48.818;8.976;2023-11-18T02:56:56;7.00;;;5.80;;
15936;SDS011;9163;48.818;8.976;2023-11-18T02:59:25;8.57;;;6.00;;
15936;SDS011;9163;48.818;8.976;2023-11-18T03:01:55;8.83;;;5.97;;
15936;SDS011;9163;48.818;8.976;2023-11-18T03:04:22;8.50;;;6.60;;
15936;SDS011;9163;48.818;8.976;2023-11-18T03:06:50;7.20;;;5.83;;
15936;SDS011;9163;48.818;8.976;2023-11-18T03:09:17;7.53;;;6.43;;
15936;SDS011;9163;48.818;8.976;2023-11-18T03:11:44;6.97;;;5.47;;
15936;SDS011;9163;48.818;8.976;2023-11-18T03:14:12;7.50;;;5.43;;
15936;SDS011;9163;48.818;8.976;2023-11-18T03:16:40;7.03;;;4.93;;
15936;SDS011;9163;48.818;8.976;2023-11-18T03:19:08;6.67;;;5.70;;
15936;SDS011;9163;48.818;8.976;2023-11-18T03:21:35;7.10;;;5.90;;
15936;SDS011;9163;48.818;8.976;2023-11-18T03:24:04;6.93;;;5.43;;
15936;SDS011;9163;48.818;8.976;2023-11-18T03:26:32;7.03;;;5.93;;
15936;SDS011;9163;48.818;8.976;2023-11-18T03:28:59;7.80;;;6.07;;
15936;SDS011;9163;48.818;8.976;2023-11-18T03:31:27;7.17;;;6.10;;
15936;SDS011;9163;48.818;8.976;2023-11-18T03:33:55;7.27;;;5.00;;
15936;SDS011;9163;48.818;8.976;2023-11-18T03:36:23;6.70;;;5.07;;
15936;SDS011;9163;48.818;8.976;2023-11-18T03:38:51;6.30;;;4.80;;
15936;SDS011;9163;48.818;8.976;2023-11-18T03:41:18;4.90;;;4.20;;
15936;SDS011;9163;48.818;8.976;2023-11-18T03:43:45;5.20;;;4.70;;
15936;SDS011;9163;48.818;8.976;2023-11-18T03:46:13;5.10;;;4.60;;
15936;SDS011;9163;48.818;8.976;2023-11-18T03:48:41;8.13;;;4.97;;
15936;SDS011;9163;48.818;8.976;2023-11-18T03:51:11;6.33;;;4.83;;
15936;SDS011;9163;48.818;8.976;2023-11-18T03:53:38;8.23;;;5.70;;
15936;SDS011;9163;48.818;8.976;2023-11-18T03:56:06;6.43;;;5.17;;
15936;SDS011;9163;48.818;8.976;2023-11-18T03:58:34;7.23;;;5.70;;
15936;SDS011;9163;48.818;8.976;2023-11-18T04:01:02;6.50;;;5.47;;
15936;SDS011;9163;48.818;8.976;2023-11-18T04:03:30;7.20;;;5.60;;
15936;SDS011;9163;48.818;8.976;2023-11-18T04:05:57;8.80;;;5.87;;
15936;SDS011;9163;48.818;8.976;2023-11-18T04:08:25;7.20;;;5.60;;
15936;SDS011;9163;48.818;8.976;2023-11-18T04:10:53;9.37;;;6.23;;
15936;SDS011;9163;48.818;8.976;2023-11-18T04:13:20;7.83;;;6.10;;
15936;SDS011;9163;48.818;8.976;2023-11-18T04:15:48;7.67;;;5.73;;
15936;SDS011;9163;48.818;8.976;2023-11-18T04:18:15;7.17;;;6.10;;
15936;SDS011;9163;48.818;8.976;2023-11-18T04:20:42;9.03;;;6.43;;
15936;SDS011;9163;48.818;8.976;2023-11-18T04:23:09;9.23;;;6.77;;
15936;SDS011;9163;48.818;8.976;2023-11-18T04:25:40;9.93;;;6.77;;
15936;SDS011;9163;48.818;8.976;2023-11-18T04:28:07;8.47;;;6.50;;
15936;SDS011;9163;48.818;8.976;2023-11-18T04:30:36;10.13;;;6.70;;
15936;SDS011;9163;48.818;8.976;2023-11-18T04:33:04;10.47;;;6.50;;
15936;SDS011;9163;48.818;8.976;2023-11-18T04:35:31;8.70;;;6.20;;
15936;SDS011;9163;48.818;8.976;2023-11-18T04:38:00;7.13;;;5.83;;
15936;SDS011;9163;48.818;8.976;2023-11-18T04:40:27;9.20;;;6.20;;
15936;SDS011;9163;48.818;8.976;2023-11-18T04:42:55;7.50;;;6.30;;
15936;SDS011;9163;48.818;8.976;2023-11-18T04:45:23;9.47;;;6.57;;
15936;SDS011;9163;48.818;8.976;2023-11-18T04:47:50;8.50;;;6.50;;
15936;SDS011;9163;48.818;8.976;2023-11-18T04:50:17;9.20;;;6.57;;
15936;SDS011;9163;48.818;8.976;2023-11-18T04:52:44;8.70;;;6.87;;
15936;SDS011;9163;48.818;8.976;2023-11-18T04:55:12;10.50;;;7.50;;
15936;SDS011;9163;48.818;8.976;2023-11-18T04:57:39;10.20;;;7.37;;
15936;SDS011;9163;48.818;8.976;2023-11-18T05:00:08;9.43;;;7.10;;
15936;SDS011;9163;48.818;8.976;2023-11-18T05:02:37;8.87;;;6.93;;
15936;SDS011;9163;48.818;8.976;2023-11-18T05:05:04;9.47;;;7.57;;
15936;SDS011;9163;48.818;8.976;2023-11-18T05:07:32;10.00;;;6.63;;
15936;SDS011;9163;48.818;8.976;2023-11-18T05:10:00;8.23;;;6.80;;
15936;SDS011;9163;48.818;8.976;2023-11-18T05:12:28;7.80;;;6.23;;
15936;SDS011;9163;48.818;8.976;2023-11-18T05:14:55;9.13;;;6.53;;
15936;SDS011;9163;48.818;8.976;2023-11-18T05:17:24;9.10;;;6.50;;
15936;SDS011;9163;48.818;8.976;2023-11-18T05:19:52;9.90;;;6.73;;
15936;SDS011;9163;48.818;8.976;2023-11-18T05:22:20;9.17;;;7.23;;
15936;SDS011;9163;48.818;8.976;2023-11-18T05:24:47;11.17;;;7.50;;
15936;SDS011;9163;48.818;8.976;2023-11-18T05:27:14;8.90;;;6.93;;
15936;SDS011;9163;48.818;8.976;2023-11-18T05:29:43;9.50;;;6.87;;
15936;SDS011;9163;48.818;8.976;2023-11-18T05:32:13;10.97;;;7.00;;
15936;SDS011;9163;48.818;8.976;2023-11-18T05:34:42;8.83;;;7.00;;
15936;SDS011;9163;48.818;8.976;2023-11-18T05:37:09;9.60;;;6.70;;
15936;SDS011;9163;48.818;8.976;2023-11-18T05:39:36;10.53;;;6.77;;
15936;SDS011;9163;48.818;8.976;2023-11-18T05:42:08;10.07;;;7.13;;
15936;SDS011;9163;48.818;8.976;2023-11-18T05:44:36;9.33;;;6.83;;
15936;SDS011;9163;48.818;8.976;2023-11-18T05:47:05;9.73;;;7.40;;
15936;SDS011;9163;48.818;8.976;2023-11-18T05:49:32;10.97;;;7.90;;
15936;SDS011;9163;48.818;8.976;2023-11-18T05:52:01;8.67;;;6.70;;
15936;SDS011;9163;48.818;8.976;2023-11-18T05:54:28;9.53;;;7.83;;
15936;SDS011;9163;48.818;8.976;2023-11-18T05:56:56;12.30;;;9.23;;
15936;SDS011;9163;48.818;8.976;2023-11-18T05:59:24;12.07;;;9.40;;
15936;SDS011;9163;48.818;8.976;2023-11-18T06:01:52;11.73;;;8.57;;
15936;SDS011;9163;48.818;8.976;2023-11-18T06:04:19;11.70;;;8.10;;
15936;SDS011;9163;48.818;8.976;2023-11-18T06:06:47;10.97;;;8.00;;
15936;SDS011;9163;48.818;8.976;2023-11-18T06:09:15;12.20;;;9.37;;
15936;SDS011;9163;48.818;8.976;2023-11-18T06:11:46;13.33;;;8.50;;
15936;SDS011;9163;48.818;8.976;2023-11-18T06:14:15;12.77;;;9.50;;
15936;SDS011;9163;48.818;8.976;2023-11-18T06:16:43;12.03;;;9.00;;
15936;SDS011;9163;48.818;8.976;2023-11-18T06:19:10;11.90;;;9.00;;
15936;SDS011;9163;48.818;8.976;2023-11-18T06:21:37;12.87;;;9.67;;
15936;SDS011;9163;48.818;8.976;2023-11-18T06:24:05;13.33;;;9.20;;
15936;SDS011;9163;48.818;8.976;2023-11-18T06:26:34;15.03;;;10.23;;
15936;SDS011;9163;48.818;8.976;2023-11-18T06:29:02;14.63;;;10.30;;
15936;SDS011;9163;48.818;8.976;2023-11-18T06:31:31;14.33;;;10.87;;
15936;SDS011;9163;48.818;8.976;2023-11-18T06:33:58;13.07;;;9.53;;
15936;SDS011;9163;48.818;8.976;2023-11-18T06:36:28;14.77;;;10.73;;
15936;SDS011;9163;48.818;8.976;2023-11-18T06:38:56;12.87;;;9.10;;
15936;SDS011;9163;48.818;8.976;2023-11-18T06:41:24;13.43;;;9.53;;
15936;SDS011;9163;48.818;8.976;2023-11-18T06:44:00;12.33;;;9.00;;
15936;SDS011;9163;48.818;8.976;2023-11-18T06:46:34;12.07;;;8.97;;
15936;SDS011;9163;48.818;8.976;2023-11-18T06:49:05;10.70;;;8.50;;
15936;SDS011;9163;48.818;8.976;2023-11-18T06:51:33;11.50;;;8.20;;
15936;SDS011;9163;48.818;8.976;2023-11-18T06:54:03;10.20;;;7.93;;
15936;SDS011;9163;48.818;8.976;2023-11-18T06:56:34;10.80;;;8.40;;
15936;SDS011;9163;48.818;8.976;2023-11-18T06:59:04;11.10;;;8.13;;
15936;SDS011;9163;48.818;8.976;2023-11-18T07:01:33;12.13;;;8.50;;
15936;SDS011;9163;48.818;8.976;2023-11-18T07:04:01;13.77;;;9.13;;
15936;SDS011;9163;48.818;8.976;2023-11-18T07:06:28;14.63;;;10.00;;
15936;SDS011;9163;48.818;8.976;2023-11-18T07:08:56;15.27;;;10.27;;
15936;SDS011;9163;48.818;8.976;2023-11-18T07:11:26;13.83;;;10.37;;
15936;SDS011;9163;48.818;8.976;2023-11-18T07:13:53;13.27;;;10.23;;
15936;SDS011;9163;48.818;8.976;2023-11-18T07:16:24;12.07;;;7.90;;
15936;SDS011;9163;48.818;8.976;2023-11-18T07:18:51;10.90;;;7.80;;
15936;SDS011;9163;48.818;8.976;2023-11-18T07:21:19;10.63;;;7.30;;
15936;SDS011;9163;48.818;8.976;2023-11-18T07:23:46;9.27;;;6.80;;
15936;SDS011;9163;48.818;8.976;2023-11-18T07:26:13;8.67;;;5.73;;
15936;SDS011;9163;48.818;8.976;2023-11-18T07:28:40;6.97;;;5.23;;
15936;SDS011;9163;48.818;8.976;2023-11-18T07:31:09;6.97;;;5.13;;
15936;SDS011;9163;48.818;8.976;2023-11-18T07:33:38;5.57;;;4.97;;
15936;SDS011;9163;48.818;8.976;2023-11-18T07:36:05;6.43;;;4.77;;
15936;SDS011;9163;48.818;8.976;2023-11-18T07:38:36;6.57;;;4.90;;
15936;SDS011;9163;48.818;8.976;2023-11-18T07:41:04;7.87;;;5.10;;
15936;SDS011;9163;48.818;8.976;2023-11-18T07:43:33;6.77;;;5.60;;
15936;SDS011;9163;48.818;8.976;2023-11-18T07:46:02;5.27;;;4.73;;
15936;SDS011;9163;48.818;8.976;2023-11-18T07:48:33;6.83;;;4.83;;
15936;SDS011;9163;48.818;8.976;2023-11-18T07:51:02;5.57;;;4.97;;
15936;SDS011;9163;48.818;8.976;2023-11-18T07:53:30;5.30;;;4.50;;
15936;SDS011;9163;48.818;8.976;2023-11-18T07:55:57;6.07;;;4.80;;
15936;SDS011;9163;48.818;8.976;2023-11-18T07:58:24;6.70;;;5.07;;
15936;SDS011;9163;48.818;8.976;2023-11-18T08:00:52;5.90;;;4.90;;
15936;SDS011;9163;48.818;8.976;2023-11-18T08:03:20;5.47;;;4.67;;
15936;SDS011;9163;48.818;8.976;2023-11-18T08:05:46;6.37;;;4.77;;
15936;SDS011;9163;48.818;8.976;2023-11-18T08:08:15;5.90;;;4.70;;
15936;SDS011;9163;48.818;8.976;2023-11-18T08:10:43;6.27;;;5.47;;
15936;SDS011;9163;48.818;8.976;2023-11-18T08:13:11;5.43;;;4.50;;
15936;SDS011;9163;48.818;8.976;2023-11-18T08:15:38;6.93;;;4.80;;
15936;SDS011;9163;48.818;8.976;2023-11-18T08:18:06;7.93;;;5.77;;
15936;SDS011;9163;48.818;8.976;2023-11-18T08:20:35;6.63;;;5.43;;
15936;SDS011;9163;48.818;8.976;2023-11-18T08:23:03;7.23;;;5.67;;
15936;SDS011;9163;48.818;8.976;2023-11-18T08:25:32;7.73;;;6.43;;
15936;SDS011;9163;48.818;8.976;2023-11-18T08:28:01;7.93;;;6.13;;
15936;SDS011;9163;48.818;8.976;2023-11-18T08:30:29;8.30;;;6.70;;
15936;SDS011;9163;48.818;8.976;2023-11-18T08:32:57;9.57;;;6.50;;
15936;SDS011;9163;48.818;8.976;2023-11-18T08:35:29;11.07;;;7.30;;
15936;SDS011;9163;48.818;8.976;2023-11-18T08:37:56;8.30;;;6.97;;
15936;SDS011;9163;48.818;8.976;2023-11-18T08:40:24;9.97;;;6.70;;
15936;SDS011;9163;48.818;8.976;2023-11-18T08:42:53;7.67;;;6.57;;
15936;SDS011;9163;48.818;8.976;2023-11-18T08:45:21;7.70;;;6.40;;
15936;SDS011;9163;48.818;8.976;2023-11-18T08:47:53;8.43;;;6.27;;
15936;SDS011;9163;48.818;8.976;2023-11-18T08:50:20;6.23;;;5.40;;
15936;SDS011;9163;48.818;8.976;2023-11-18T08:52:49;6.63;;;5.17;;
15936;SDS011;9163;48.818;8.976;2023-11-18T08:55:19;6.83;;;5.20;;
15936;SDS011;9163;48.818;8.976;2023-11-18T08:57:48;6.23;;;5.03;;
15936;SDS011;9163;48.818;8.976;2023-11-18T09:00:25;7.53;;;4.57;;
15936;SDS011;9163;48.818;8.976;2023-11-18T09:03:10;6.60;;;4.53;;
15936;SDS011;9163;48.818;8.976;2023-11-18T09:05:44;6.53;;;4.50;;
15936;SDS011;9163;48.818;8.976;2023-11-18T09:08:23;5.50;;;4.53;;
15936;SDS011;9163;48.818;8.976;2023-11-18T09:10:50;7.13;;;3.90;;
15936;SDS011;9163;48.818;8.976;2023-11-18T09:13:20;6.60;;;4.03;;
15936;SDS011;9163;48.818;8.976;2023-11-18T09:15:50;6.63;;;4.00;;
15936;SDS011;9163;48.818;8.976;2023-11-18T09:18:17;6.80;;;4.20;;
15936;SDS011;9163;48.818;8.976;2023-11-18T09:20:47;4.97;;;4.00;;
15936;SDS011;9163;48.818;8.976;2023-11-18T09:23:14;6.07;;;4.40;;
15936;SDS011;9163;48.818;8.976;2023-11-18T09:25:42;5.83;;;3.87;;
15936;SDS011;9163;48.818;8.976;2023-11-18T09:28:12;6.33;;;3.70;;
15936;SDS011;9163;48.818;8.976;2023-11-18T09:30:41;4.77;;;3.73;;
15936;SDS011;9163;48.818;8.976;2023-11-18T09:33:19;7.60;;;4.60;;
15936;SDS011;9163;48.818;8.976;2023-11-18T09:35:54;4.13;;;3.73;;
15936;SDS011;9163;48.818;8.976;2023-11-18T09:38:25;5.47;;;3.70;;
15936;SDS011;9163;48.818;8.976;2023-11-18T09:40:56;5.40;;;3.60;;
15936;SDS011;9163;48.818;8.976;2023-11-18T09:43:28;6.07;;;3.90;;
15936;SDS011;9163;48.818;8.976;2023-11-18T09:46:01;6.43;;;4.57;;
15936;SDS011;9163;48.818;8.976;2023-11-18T09:48:35;4.57;;;3.80;;
15936;SDS011;9163;48.818;8.976;2023-11-18T09:51:06;5.63;;;4.00;;
15936;SDS011;9163;48.818;8.976;2023-11-18T09:53:35;5.10;;;3.20;;
15936;SDS011;9163;48.818;8.976;2023-11-18T09:56:07;5.13;;;3.40;;
15936;SDS011;9163;48.818;8.976;2023-11-18T09:58:45;6.30;;;3.67;;
15936;SDS011;9163;48.818;8.976;2023-11-18T10:01:22;4.63;;;3.27;;
15936;SDS011;9163;48.818;8.976;2023-11-18T10:03:54;5.13;;;2.97;;
15936;SDS011;9163;48.818;8.976;2023-11-18T10:06:23;3.23;;;2.60;;
15936;SDS011;9163;48.818;8.976;2023-11-18T10:08:57;4.70;;;2.70;;
15936;SDS011;9163;48.818;8.976;2023-11-18T10:11:40;4.73;;;2.70;;
15936;SDS011;9163;48.818;8.976;2023-11-18T10:14:08;4.33;;;2.80;;
15936;SDS011;9163;48.818;8.976;2023-11-18T10:16:36;4.17;;;2.53;;
15936;SDS011;9163;48.818;8.976;2023-11-18T10:19:05;4.83;;;3.63;;
15936;SDS011;9163;48.818;8.976;2023-11-18T10:21:34;3.73;;;3.20;;
15936;SDS011;9163;48.818;8.976;2023-11-18T10:24:05;4.00;;;3.40;;
15936;SDS011;9163;48.818;8.976;2023-11-18T10:26:40;5.57;;;3.17;;
15936;SDS011;9163;48.818;8.976;2023-11-18T10:29:10;4.60;;;3.40;;
15936;SDS011;9163;48.818;8.976;2023-11-18T10:31:39;4.27;;;3.30;;
15936;SDS011;9163;48.818;8.976;2023-11-18T10:34:12;5.97;;;3.23;;
15936;SDS011;9163;48.818;8.976;2023-11-18T10:36:42;4.17;;;3.40;;
15936;SDS011;9163;48.818;8.976;2023-11-18T10:39:28;3.77;;;3.17;;
15936;SDS011;9163;48.818;8.976;2023-11-18T10:41:58;3.40;;;3.10;;
15936;SDS011;9163;48.818;8.976;2023-11-18T10:44:27;5.17;;;3.23;;
15936;SDS011;9163;48.818;8.976;2023-11-18T10:46:55;5.20;;;3.03;;
15936;SDS011;9163;48.818;8.976;2023-11-18T10:49:25;5.27;;;3.40;;
15936;SDS011;9163;48.818;8.976;2023-11-18T10:51:52;4.13;;;3.40;;
15936;SDS011;9163;48.818;8.976;2023-11-18T10:54:21;5.10;;;3.47;;
15936;SDS011;9163;48.818;8.976;2023-11-18T10:56:52;5.37;;;2.70;;
15936;SDS011;9163;48.818;8.976;2023-11-18T10:59:22;4.77;;;2.80;;
15936;SDS011;9163;48.818;8.976;2023-11-18T11:01:49;4.07;;;2.80;;
15936;SDS011;9163;48.818;8.976;2023-11-18T11:04:16;4.07;;;2.77;;
15936;SDS011;9163;48.818;8.976;2023-11-18T11:06:48;5.10;;;2.73;;
15936;SDS011;9163;48.818;8.976;2023-11-18T11:09:19;3.73;;;2.70;;
15936;SDS011;9163;48.818;8.976;2023-11-18T11:11:52;4.33;;;2.30;;
15936;SDS011;9163;48.818;8.976;2023-11-18T11:14:21;4.53;;;2.53;;
15936;SDS011;9163;48.818;8.976;2023-11-18T11:16:59;6.43;;;3.00;;
15936;SDS011;9163;48.818;8.976;2023-11-18T11:19:39;7.13;;;2.77;;
15936;SDS011;9163;48.818;8.976;2023-11-18T11:22:17;3.33;;;2.23;;
15936;SDS011;9163;48.818;8.976;2023-11-18T11:24:54;4.13;;;2.53;;
15936;SDS011;9163;48.818;8.976;2023-11-18T11:27:38;5.53;;;2.47;;
15936;SDS011;9163;48.818;8.976;2023-11-18T11:30:16;4.40;;;2.80;;
15936;SDS011;9163;48.818;8.976;2023-11-18T11:32:50;4.87;;;3.00;;
15936;SDS011;9163;48.818;8.976;2023-11-18T11:35:19;3.57;;;2.37;;
15936;SDS011;9163;48.818;8.976;2023-11-18T11:37:52;4.83;;;3.07;;
15936;SDS011;9163;48.818;8.976;2023-11-18T11:40:23;3.87;;;2.57;;
15936;SDS011;9163;48.818;8.976;2023-11-18T11:42:51;3.90;;;2.53;;
15936;SDS011;9163;48.818;8.976;2023-11-18T11:45:22;4.83;;;2.50;;
15936;SDS011;9163;48.818;8.976;2023-11-18T11:47:54;5.00;;;2.63;;
15936;SDS011;9163;48.818;8.976;2023-11-18T11:50:43;5.43;;;2.80;;
15936;SDS011;9163;48.818;8.976;2023-11-18T11:53:23;5.70;;;3.00;;
15936;SDS011;9163;48.818;8.976;2023-11-18T11:55:56;5.00;;;2.73;;
15936;SDS011;9163;48.818;8.976;2023-11-18T11:58:31;6.83;;;3.00;;
15936;SDS011;9163;48.818;8.976;2023-11-18T12:01:02;3.93;;;3.10;;
15936;SDS011;9163;48.818;8.976;2023-11-18T12:03:45;6.27;;;3.10;;
15936;SDS011;9163;48.818;8.976;2023-11-18T12:06:17;4.80;;;3.50;;
15936;SDS011;9163;48.818;8.976;2023-11-18T12:08:52;6.70;;;3.60;;
15936;SDS011;9163;48.818;8.976;2023-11-18T12:11:20;5.07;;;3.00;;
15936;SDS011;9163;48.818;8.976;2023-11-18T12:13:59;2.93;;;2.43;;
15936;SDS011;9163;48.818;8.976;2023-11-18T12:19:29;5.87;;;3.27;;
15936;SDS011;9163;48.818;8.976;2023-11-18T12:21:58;12.00;;;3.20;;
15936;SDS011;9163;48.818;8.976;2023-11-18T12:24:27;3.57;;;2.83;;
15936;SDS011;9163;48.818;8.976;2023-11-18T12:26:59;5.53;;;3.40;;
15936;SDS011;9163;48.818;8.976;2023-11-18T12:29:31;4.70;;;2.97;;
15936;SDS011;9163;48.818;8.976;2023-11-18T12:31:59;4.40;;;2.67;;
15936;SDS011;9163;48.818;8.976;2023-11-18T12:34:50;6.27;;;3.30;;
15936;SDS011;9163;48.818;8.976;2023-11-18T12:37:27;4.83;;;2.60;;
15936;SDS011;9163;48.818;8.976;2023-11-18T12:40:22;2.60;;;2.20;;
15936;SDS011;9163;48.818;8.976;2023-11-18T12:43:03;3.60;;;2.40;;
15936;SDS011;9163;48.818;8.976;2023-11-18T12:48:41;4.93;;;2.53;;
15936;SDS011;9163;48.818;8.976;2023-11-18T12:51:12;4.30;;;2.50;;
15936;SDS011;9163;48.818;8.976;2023-11-18T12:53:46;5.37;;;2.53;;
15936;SDS011;9163;48.818;8.976;2023-11-18T12:56:17;4.33;;;2.07;;
15936;SDS011;9163;48.818;8.976;2023-11-18T12:58:45;4.17;;;2.00;;
15936;SDS011;9163;48.818;8.976;2023-11-18T13:01:13;3.40;;;2.13;;
15936;SDS011;9163;48.818;8.976;2023-11-18T13:03:41;3.93;;;1.93;;
15936;SDS011;9163;48.818;8.976;2023-11-18T13:06:09;4.03;;;1.97;;
15936;SDS011;9163;48.818;8.976;2023-11-18T13:08:37;4.80;;;1.97;;
15936;SDS011;9163;48.818;8.976;2023-11-18T13:11:05;3.97;;;2.10;;
15936;SDS011;9163;48.818;8.976;2023-11-18T13:13:39;3.93;;;2.03;;
15936;SDS011;9163;48.818;8.976;2023-11-18T13:16:07;3.50;;;1.90;;
15936;SDS011;9163;48.818;8.976;2023-11-18T13:18:41;4.40;;;2.03;;
15936;SDS011;9163;48.818;8.976;2023-11-18T13:21:13;5.77;;;2.07;;
15936;SDS011;9163;48.818;8.976;2023-11-18T13:23:40;3.83;;;2.27;;
15936;SDS011;9163;48.818;8.976;2023-11-18T13:26:08;3.13;;;2.30;;
15936;SDS011;9163;48.818;8.976;2023-11-18T13:28:38;3.07;;;2.20;;
15936;SDS011;9163;48.818;8.976;2023-11-18T13:31:06;10.07;;;2.93;;
15936;SDS011;9163;48.818;8.976;2023-11-18T13:33:38;4.63;;;2.20;;
15936;SDS011;9163;48.818;8.976;2023-11-18T13:36:05;3.73;;;2.47;;
15936;SDS011;9163;48.818;8.976;2023-11-18T13:38:35;5.07;;;2.50;;
15936;SDS011;9163;48.818;8.976;2023-11-18T13:41:03;5.60;;;2.37;;
15936;SDS011;9163;48.818;8.976;2023-11-18T13:43:42;4.00;;;2.30;;
15936;SDS011;9163;48.818;8.976;2023-11-18T13:46:10;4.73;;;2.47;;
15936;SDS011;9163;48.818;8.976;2023-11-18T13:48:38;6.57;;;2.80;;
15936;SDS011;9163;48.818;8.976;2023-11-18T13:51:08;3.87;;;2.30;;
15936;SDS011;9163;48.818;8.976;2023-11-18T13:53:38;5.00;;;2.50;;
15936;SDS011;9163;48.818;8.976;2023-11-18T13:56:09;6.10;;;3.10;;
15936;SDS011;9163;48.818;8.976;2023-11-18T13:58:37;7.13;;;3.73;;
15936;SDS011;9163;48.818;8.976;2023-11-18T14:01:07;6.50;;;2.77;;
15936;SDS011;9163;48.818;8.976;2023-11-18T14:03:34;4.87;;;2.57;;
15936;SDS011;9163;48.818;8.976;2023-11-18T14:06:05;3.60;;;3.07;;
15936;SDS011;9163;48.818;8.976;2023-11-18T14:08:36;4.00;;;2.80;;
15936;SDS011;9163;48.818;8.976;2023-11-18T14:11:03;4.57;;;2.87;;
15936;SDS011;9163;48.818;8.976;2023-11-18T14:13:31;4.33;;;2.57;;
15936;SDS011;9163;48.818;8.976;2023-11-18T14:16:00;5.10;;;3.07;;
15936;SDS011;9163;48.818;8.976;2023-11-18T14:18:30;5.60;;;3.57;;
15936;SDS011;9163;48.818;8.976;2023-11-18T14:20:57;3.57;;;2.77;;
15936;SDS011;9163;48.818;8.976;2023-11-18T14:23:26;5.77;;;3.10;;
15936;SDS011;9163;48.818;8.976;2023-11-18T14:25:52;7.17;;;4.23;;
15936;SDS011;9163;48.818;8.976;2023-11-18T14:28:19;6.27;;;4.63;;
15936;SDS011;9163;48.818;8.976;2023-11-18T14:30:50;5.70;;;3.30;;
15936;SDS011;9163;48.818;8.976;2023-11-18T14:33:18;5.07;;;3.73;;
15936;SDS011;9163;48.818;8.976;2023-11-18T14:35:46;5.33;;;3.20;;
15936;SDS011;9163;48.818;8.976;2023-11-18T14:38:13;5.57;;;2.90;;
15936;SDS011;9163;48.818;8.976;2023-11-18T14:40:41;5.73;;;3.30;;
15936;SDS011;9163;48.818;8.976;2023-11-18T14:43:08;5.77;;;3.03;;
15936;SDS011;9163;48.818;8.976;2023-11-18T14:45:35;3.60;;;2.63;;
15936;SDS011;9163;48.818;8.976;2023-11-18T14:48:03;5.00;;;3.20;;
15936;SDS011;9163;48.818;8.976;2023-11-18T14:50:30;6.23;;;3.00;;
15936;SDS011;9163;48.818;8.976;2023-11-18T14:52:59;4.93;;;2.70;;
15936;SDS011;9163;48.818;8.976;2023-11-18T14:55:26;4.73;;;3.23;;
15936;SDS011;9163;48.818;8.976;2023-11-18T14:57:54;4.37;;;3.23;;
15936;SDS011;9163;48.818;8.976;2023-11-18T15:00:21;6.83;;;4.00;;
15936;SDS011;9163;48.818;8.976;2023-11-18T15:02:52;5.27;;;3.03;;
15936;SDS011;9163;48.818;8.976;2023-11-18T15:05:20;7.93;;;3.33;;
15936;SDS011;9163;48.818;8.976;2023-11-18T15:07:52;7.37;;;3.80;;
15936;SDS011;9163;48.818;8.976;2023-11-18T15:10:22;4.60;;;3.20;;
15936;SDS011;9163;48.818;8.976;2023-11-18T15:12:51;9.13;;;3.27;;
15936;SDS011;9163;48.818;8.976;2023-11-18T15:15:20;5.07;;;4.17;;
15936;SDS011;9163;48.818;8.976;2023-11-18T15:17:48;5.67;;;3.47;;